Time;durP1;ratioP1;P1;durP2;ratioP2;P2;SDS_P1;SDS_P2;PMS_P1;PMS_P2;Temp;Humidity;BMP_temperature;BMP_pressure;BME280_temperature;BME280_humidity;BME280_pressure;Samples;Min_cycle;Max_cycle;Signal;HPM_P1;HPM_P2
2024/02/08 00:00:21;;;;;;;2.47;2.07;;;8.70;61.50;;;;;;5027630;28;20206;-66
2024/02/08 00:02:48;;;;;;;2.17;2.07;;;8.70;62.00;;;;;;5026358;28;20260;-65
2024/02/08 00:05:15;;;;;;;2.67;2.17;;;8.70;61.40;;;;;;5031651;28;20206;-65
2024/02/08 00:07:41;;;;;;;2.20;2.10;;;8.70;61.70;;;;;;5029252;28;20206;-65
2024/02/08 00:10:08;;;;;;;2.40;2.20;;;8.70;62.10;;;;;;5023020;28;20240;-65
2024/02/08 00:12:35;;;;;;;2.63;2.40;;;8.70;62.30;;;;;;5029245;28;20650;-65
2024/02/08 00:15:01;;;;;;;2.57;2.37;;;8.70;63.00;;;;;;5028194;28;20291;-65
2024/02/08 00:17:28;;;;;;;1.97;1.87;;;8.70;62.20;;;;;;5010427;28;20594;-64
2024/02/08 00:19:54;;;;;;;2.43;2.23;;;8.80;61.60;;;;;;5022973;28;20218;-65
2024/02/08 00:22:21;;;;;;;2.87;2.03;;;8.70;61.90;;;;;;5034984;28;20309;-65
2024/02/08 00:24:47;;;;;;;2.17;2.03;;;8.70;61.40;;;;;;5034955;28;20469;-65
2024/02/08 00:27:18;;;;;;;1.93;1.73;;;8.70;61.60;;;;;;5023648;28;20284;-65
2024/02/08 00:29:44;;;;;;;2.13;1.90;;;8.70;61.70;;;;;;5032231;28;20213;-65
2024/02/08 00:32:11;;;;;;;2.47;2.27;;;8.70;61.90;;;;;;5018704;28;20234;-65
2024/02/08 00:34:40;;;;;;;2.00;1.90;;;8.60;62.20;;;;;;5027772;28;20300;-65
2024/02/08 00:37:07;;;;;;;3.90;2.10;;;8.70;61.90;;;;;;5031246;28;20203;-65
2024/02/08 00:39:33;;;;;;;1.90;1.80;;;8.70;61.70;;;;;;5026649;28;20656;-65
2024/02/08 00:42:02;;;;;;;1.97;1.87;;;8.80;60.80;;;;;;5025413;28;20275;-64
2024/02/08 00:44:29;;;;;;;2.00;1.90;;;8.80;61.40;;;;;;5024595;28;20208;-64
2024/02/08 00:46:55;;;;;;;1.80;1.70;;;8.70;61.70;;;;;;5029666;28;20211;-64
2024/02/08 00:49:22;;;;;;;3.13;1.90;;;8.80;61.20;;;;;;5033660;28;20323;-65
2024/02/08 00:51:49;;;;;;;2.03;1.90;;;8.80;60.90;;;;;;5025887;28;20740;-65
2024/02/08 00:54:15;;;;;;;1.97;1.87;;;8.90;60.80;;;;;;5032050;28;20807;-64
2024/02/08 00:56:42;;;;;;;2.43;2.23;;;8.90;60.40;;;;;;5028589;28;20241;-65
2024/02/08 00:59:08;;;;;;;1.83;1.73;;;8.80;60.60;;;;;;5025497;28;20210;-65
2024/02/08 01:01:36;;;;;;;2.10;1.90;;;8.80;60.90;;;;;;5022227;28;20229;-65
2024/02/08 01:04:03;;;;;;;2.00;1.90;;;8.80;60.60;;;;;;5032860;28;20314;-65
2024/02/08 01:06:30;;;;;;;1.60;1.50;;;8.90;60.40;;;;;;5028875;28;20219;-65
2024/02/08 01:08:57;;;;;;;2.13;1.93;;;8.80;60.10;;;;;;5021913;28;20224;-65
2024/02/08 01:11:23;;;;;;;1.80;1.70;;;8.90;60.00;;;;;;5034297;28;20233;-65
2024/02/08 01:13:52;;;;;;;1.80;1.70;;;8.90;60.00;;;;;;5027579;28;20234;-65
2024/02/08 01:16:18;;;;;;;1.80;1.63;;;9.00;60.00;;;;;;5025832;28;20207;-64
2024/02/08 01:18:45;;;;;;;1.80;1.70;;;8.90;59.80;;;;;;5021409;28;20241;-65
2024/02/08 01:21:11;;;;;;;1.73;1.63;;;8.90;59.80;;;;;;5032504;28;20691;-65
2024/02/08 01:23:38;;;;;;;1.67;1.60;;;9.00;59.70;;;;;;5033960;28;20210;-65
2024/02/08 01:26:04;;;;;;;1.80;1.70;;;9.00;59.00;;;;;;5031492;28;20480;-65
2024/02/08 01:28:31;;;;;;;1.40;1.40;;;9.10;59.10;;;;;;5020430;28;20260;-65
2024/02/08 01:30:58;;;;;;;1.73;1.47;;;9.10;59.40;;;;;;5025820;28;20215;-65
2024/02/08 01:33:24;;;;;;;1.70;1.60;;;9.00;59.30;;;;;;5030091;28;20240;-65
2024/02/08 01:35:51;;;;;;;1.70;1.60;;;9.00;59.80;;;;;;5020820;28;20218;-65
2024/02/08 01:38:18;;;;;;;1.70;1.60;;;9.10;59.40;;;;;;5027120;28;20217;-65
2024/02/08 01:40:44;;;;;;;1.70;1.60;;;9.10;59.50;;;;;;5027287;28;20202;-65
2024/02/08 01:43:11;;;;;;;1.53;1.50;;;9.20;59.40;;;;;;5029794;28;20215;-65
2024/02/08 01:45:39;;;;;;;1.70;1.60;;;9.10;59.30;;;;;;5024989;28;20308;-66
2024/02/08 01:48:10;;;;;;;1.80;1.70;;;9.10;59.20;;;;;;5029294;28;20397;-64
2024/02/08 01:50:36;;;;;;;1.50;1.50;;;9.10;59.00;;;;;;5029469;28;20214;-64
2024/02/08 01:53:03;;;;;;;1.40;1.40;;;9.20;59.00;;;;;;5018633;28;20290;-64
2024/02/08 01:55:32;;;;;;;1.70;1.60;;;9.10;58.80;;;;;;5028690;28;20276;-65
2024/02/08 01:57:59;;;;;;;1.90;1.80;;;9.20;59.00;;;;;;5029622;28;20218;-65
2024/02/08 02:00:29;;;;;;;1.70;1.60;;;9.20;58.90;;;;;;5025960;28;20234;-65
2024/02/08 02:02:57;;;;;;;1.60;1.50;;;9.10;59.20;;;;;;5024958;28;20324;-64
2024/02/08 02:05:25;;;;;;;1.30;1.30;;;9.10;59.00;;;;;;5024666;28;20234;-65
2024/02/08 02:07:51;;;;;;;1.43;1.40;;;9.10;59.00;;;;;;5026701;28;20219;-64
2024/02/08 02:10:18;;;;;;;1.90;1.80;;;9.20;58.80;;;;;;5023823;28;20688;-65
2024/02/08 02:12:45;;;;;;;1.60;1.50;;;9.20;58.90;;;;;;5026049;28;20219;-65
2024/02/08 02:15:12;;;;;;;1.40;1.40;;;9.10;58.70;;;;;;5031818;28;20324;-65
2024/02/08 02:17:38;;;;;;;1.60;1.50;;;9.20;58.80;;;;;;5032977;28;20210;-66
2024/02/08 02:20:06;;;;;;;1.43;1.43;;;9.20;58.80;;;;;;5025542;28;20207;-65
2024/02/08 02:22:33;;;;;;;1.60;1.50;;;9.30;58.70;;;;;;5020202;28;20322;-65
2024/02/08 02:25:00;;;;;;;1.40;1.30;;;9.30;58.30;;;;;;5013530;28;20243;-64
2024/02/08 02:27:26;;;;;;;1.50;1.40;;;9.30;58.30;;;;;;5021175;28;20217;-65
2024/02/08 02:29:54;;;;;;;1.50;1.50;;;9.30;58.30;;;;;;5010737;28;20242;-65
2024/02/08 02:32:21;;;;;;;1.37;1.37;;;9.30;58.50;;;;;;5027457;28;20701;-65
2024/02/08 02:34:47;;;;;;;1.30;1.30;;;9.30;58.70;;;;;;5027202;28;20324;-65
2024/02/08 02:37:14;;;;;;;1.47;1.40;;;9.30;58.90;;;;;;5016315;28;20661;-65
2024/02/08 02:39:41;;;;;;;1.40;1.40;;;9.40;58.90;;;;;;5027244;28;20661;-65
2024/02/08 02:42:08;;;;;;;1.73;1.50;;;9.30;58.90;;;;;;5021368;28;20242;-66
2024/02/08 02:44:35;;;;;;;3.90;1.57;;;9.30;59.10;;;;;;5027082;28;20244;-65
2024/02/08 02:47:03;;;;;;;1.30;1.30;;;9.30;59.00;;;;;;5025819;28;20241;-65
2024/02/08 02:49:30;;;;;;;1.30;1.30;;;9.40;59.10;;;;;;5023236;28;20213;-65
2024/02/08 02:51:59;;;;;;;1.47;1.47;;;9.40;58.70;;;;;;5027894;28;20234;-66
2024/02/08 02:54:30;;;;;;;1.47;1.47;;;9.40;58.80;;;;;;5032339;28;20236;-65
2024/02/08 02:56:57;;;;;;;1.60;1.50;;;9.40;58.90;;;;;;5022294;28;20210;-66
2024/02/08 02:59:26;;;;;;;1.50;1.50;;;9.40;59.10;;;;;;5019358;28;20276;-65
2024/02/08 03:01:55;;;;;;;1.57;1.47;;;9.50;59.50;;;;;;5022725;28;20238;-66
2024/02/08 03:04:22;;;;;;;1.30;1.30;;;9.40;60.10;;;;;;5024043;28;20207;-66
2024/02/08 03:06:53;;;;;;;1.40;1.40;;;9.40;60.10;;;;;;5028625;28;20202;-65
2024/02/08 03:09:23;;;;;;;1.30;1.30;;;9.40;59.90;;;;;;5029556;28;20246;-65
2024/02/08 03:11:49;;;;;;;1.40;1.40;;;9.40;60.60;;;;;;5032159;28;20231;-65
2024/02/08 03:14:19;;;;;;;1.30;1.30;;;9.40;60.80;;;;;;5031600;28;20226;-64
2024/02/08 03:16:46;;;;;;;1.40;1.40;;;9.40;60.60;;;;;;5022045;28;20221;-65
2024/02/08 03:19:12;;;;;;;2.37;1.40;;;9.40;60.70;;;;;;5030748;28;20232;-64
2024/02/08 03:21:40;;;;;;;1.27;1.27;;;9.40;61.10;;;;;;5026802;28;20717;-65
2024/02/08 03:24:08;;;;;;;1.60;1.50;;;9.30;61.40;;;;;;5015480;28;20221;-65
2024/02/08 03:26:40;;;;;;;1.50;1.40;;;9.40;61.40;;;;;;5024854;28;20243;-66
2024/02/08 03:29:07;;;;;;;1.30;1.30;;;9.40;61.70;;;;;;5022270;28;20634;-65
2024/02/08 03:31:33;;;;;;;1.27;1.27;;;9.40;61.70;;;;;;5031369;28;20230;-65
2024/02/08 03:34:00;;;;;;;1.40;1.40;;;9.40;61.70;;;;;;5022600;28;20670;-65
2024/02/08 03:36:27;;;;;;;1.23;1.23;;;9.40;61.70;;;;;;5023320;28;20226;-65
2024/02/08 03:38:54;;;;;;;1.50;1.40;;;9.40;61.80;;;;;;5031579;28;20280;-65
2024/02/08 03:41:20;;;;;;;1.50;1.40;;;9.50;61.90;;;;;;5023379;28;20307;-65
2024/02/08 03:43:47;;;;;;;1.33;1.33;;;9.50;61.80;;;;;;5021767;28;20735;-65
2024/02/08 03:46:14;;;;;;;1.30;1.30;;;9.50;61.80;;;;;;5027814;28;20202;-65
2024/02/08 03:48:46;;;;;;;1.50;1.40;;;9.40;61.60;;;;;;5029094;28;20206;-65
2024/02/08 03:51:12;;;;;;;1.40;1.30;;;9.40;61.50;;;;;;5021491;28;20230;-65
2024/02/08 03:53:39;;;;;;;1.53;1.40;;;9.50;61.50;;;;;;5022402;28;20218;-65
2024/02/08 03:56:06;;;;;;;1.40;1.40;;;9.50;61.20;;;;;;5026452;28;20265;-65
2024/02/08 03:58:32;;;;;;;1.30;1.30;;;9.50;61.20;;;;;;5029467;28;20217;-65
2024/02/08 04:01:00;;;;;;;1.30;1.30;;;9.60;61.00;;;;;;5023427;28;20635;-65
2024/02/08 04:03:43;;;;;;;1.40;1.30;;;9.60;61.20;;;;;;5026534;28;20215;-65
2024/02/08 04:06:26;;;;;;;1.17;1.17;;;9.50;62.50;;;;;;5021713;28;20244;-65
2024/02/08 04:09:16;;;;;;;1.40;1.40;;;9.50;62.50;;;;;;5025965;28;20682;-65
2024/02/08 04:55:30;;;;;;;1.40;1.40;;;9.50;62.10;;;;;;5021939;28;20261;-65
2024/02/08 04:57:57;;;;;;;1.30;1.30;;;9.50;61.50;;;;;;5024024;28;20294;-65
2024/02/08 05:00:27;;;;;;;1.30;1.30;;;9.50;61.90;;;;;;5025679;28;20202;-64
2024/02/08 05:02:56;;;;;;;1.40;1.40;;;9.60;61.40;;;;;;5030566;28;20226;-65
2024/02/08 05:05:24;;;;;;;1.33;1.33;;;9.60;60.80;;;;;;5029259;28;20298;-65
2024/02/08 05:07:51;;;;;;;1.30;1.30;;;9.60;61.00;;;;;;5032334;28;20214;-65
2024/02/08 05:10:18;;;;;;;1.20;1.20;;;9.60;60.70;;;;;;5022830;28;20285;-65
2024/02/08 05:12:47;;;;;;;1.10;1.10;;;9.70;60.50;;;;;;5027585;28;20227;-64
2024/02/08 05:15:13;;;;;;;1.30;1.30;;;9.60;60.30;;;;;;5021123;28;20234;-65
2024/02/08 05:17:40;;;;;;;1.30;1.30;;;9.60;60.40;;;;;;5025302;28;20221;-65
2024/02/08 05:20:11;;;;;;;1.30;1.30;;;9.70;60.30;;;;;;5026407;28;20207;-65
2024/02/08 05:22:38;;;;;;;1.27;1.27;;;9.60;60.20;;;;;;5029305;28;20227;-65
2024/02/08 05:25:10;;;;;;;1.20;1.20;;;9.60;60.30;;;;;;5030439;28;20206;-65
2024/02/08 05:27:36;;;;;;;1.40;1.40;;;9.60;60.10;;;;;;5033762;28;20218;-65
2024/02/08 05:30:03;;;;;;;1.30;1.30;;;9.60;60.30;;;;;;5022995;28;20738;-65
2024/02/08 05:32:29;;;;;;;1.23;1.17;;;9.60;60.50;;;;;;5018137;28;20260;-64
2024/02/08 05:34:57;;;;;;;1.53;1.40;;;9.70;60.60;;;;;;5032345;28;20288;-65
2024/02/08 05:37:25;;;;;;;1.40;1.40;;;9.60;62.10;;;;;;5033514;28;20211;-64
2024/02/08 05:39:51;;;;;;;2.00;1.90;;;9.50;63.00;;;;;;5032623;28;20214;-65
2024/02/08 05:42:19;;;;;;;1.30;1.30;;;9.50;63.30;;;;;;5033044;28;20261;-65
2024/02/08 05:44:47;;;;;;;1.30;1.30;;;9.40;64.10;;;;;;5025341;28;20291;-65
2024/02/08 05:47:15;;;;;;;1.53;1.40;;;9.50;64.20;;;;;;5030604;28;20637;-65
2024/02/08 05:49:48;;;;;;;1.30;1.30;;;9.50;65.00;;;;;;5024546;28;20219;-64
2024/02/08 05:52:15;;;;;;;1.30;1.30;;;9.40;66.60;;;;;;5027686;28;20245;-65
2024/02/08 05:54:45;;;;;;;1.23;1.23;;;9.30;67.40;;;;;;5027762;28;20214;-65
2024/02/08 05:57:12;;;;;;;1.40;1.40;;;9.30;67.40;;;;;;5028932;28;20698;-64
2024/02/08 05:59:39;;;;;;;1.43;1.30;;;9.20;68.00;;;;;;5019873;28;20214;-65
2024/02/08 06:02:13;;;;;;;1.30;1.30;;;9.20;68.40;;;;;;5021424;28;20281;-65
2024/02/08 06:04:41;;;;;;;1.40;1.30;;;9.20;67.90;;;;;;5026182;28;20213;-65
2024/02/08 06:07:07;;;;;;;1.53;1.50;;;9.20;68.10;;;;;;5022111;28;20210;-65
2024/02/08 06:09:47;;;;;;;1.40;1.40;;;9.20;67.30;;;;;;5032833;28;20241;-64
2024/02/08 06:12:16;;;;;;;1.37;1.37;;;9.30;67.40;;;;;;5025407;28;20230;-65
2024/02/08 06:14:43;;;;;;;1.43;1.43;;;9.20;67.30;;;;;;5024665;28;20245;-65
2024/02/08 06:17:10;;;;;;;1.47;1.33;;;9.30;66.80;;;;;;5032535;28;20203;-65
2024/02/08 06:19:37;;;;;;;1.33;1.30;;;9.30;67.00;;;;;;5025650;28;20272;-65
2024/02/08 06:22:16;;;;;;;1.50;1.40;;;9.40;66.00;;;;;;5025533;28;20228;-65
2024/02/08 06:24:44;;;;;;;1.40;1.40;;;9.40;66.10;;;;;;5026483;28;20218;-64
2024/02/08 06:27:14;;;;;;;1.60;1.50;;;9.40;66.20;;;;;;5032739;28;20240;-65
2024/02/08 06:29:42;;;;;;;1.47;1.40;;;9.40;65.50;;;;;;5033130;28;20288;-65
2024/02/08 06:34:55;;;;;;;1.30;1.20;;;9.50;65.00;;;;;;5015729;28;20202;-65
2024/02/08 06:37:28;;;;;;;1.30;1.30;;;9.50;65.00;;;;;;5015810;28;20923;-65
2024/02/08 06:39:56;;;;;;;1.53;1.27;;;9.50;64.10;;;;;;5017089;28;20268;-65
2024/02/08 06:48:14;;;;;;;1.30;1.30;;;9.60;63.50;;;;;;5026352;28;20554;-65
2024/02/08 07:37:25;;;;;;;2.50;1.70;;;10.10;58.00;;;;;;5019412;28;20248;-66
2024/02/08 07:40:00;;;;;;;1.43;1.40;;;10.10;57.90;;;;;;5020529;28;20268;-65
2024/02/08 07:42:32;;;;;;;1.20;1.10;;;10.20;58.00;;;;;;5031071;28;20712;-65
2024/02/08 07:44:58;;;;;;;1.30;1.30;;;10.10;57.70;;;;;;5019953;28;20204;-66
2024/02/08 07:47:25;;;;;;;1.40;1.30;;;10.20;58.10;;;;;;5019747;28;20292;-66
2024/02/08 07:49:57;;;;;;;1.50;1.40;;;10.30;57.40;;;;;;5026020;28;20565;-65
2024/02/08 07:52:24;;;;;;;1.30;1.30;;;10.40;56.90;;;;;;5030345;28;20231;-65
2024/02/08 07:54:56;;;;;;;1.30;1.30;;;10.40;56.50;;;;;;5029482;28;20665;-66
2024/02/08 07:57:26;;;;;;;1.20;1.20;;;10.50;56.30;;;;;;5025221;28;20277;-65
2024/02/08 07:59:53;;;;;;;1.57;1.47;;;10.50;56.50;;;;;;5022672;28;20201;-66
2024/02/08 08:02:23;;;;;;;1.20;1.20;;;10.50;56.40;;;;;;5016919;28;20226;-66
2024/02/08 08:04:53;;;;;;;1.50;1.40;;;10.60;56.00;;;;;;5019542;28;20682;-66
2024/02/08 08:07:23;;;;;;;1.20;1.20;;;10.70;55.90;;;;;;5015448;28;20218;-66
2024/02/08 08:09:55;;;;;;;1.27;1.27;;;10.70;55.70;;;;;;5017929;28;20235;-66
2024/02/08 08:12:22;;;;;;;1.30;1.30;;;10.70;55.30;;;;;;5021146;28;20276;-65
2024/02/08 08:17:39;;;;;;;1.30;1.30;;;10.80;55.10;;;;;;5002420;28;20705;-65
2024/02/08 08:20:15;;;;;;;1.30;1.30;;;10.80;54.90;;;;;;5018816;28;20215;-66
2024/02/08 08:22:50;;;;;;;1.30;1.30;;;10.80;55.00;;;;;;5017476;28;20235;-66
2024/02/08 08:25:29;;;;;;;1.10;1.10;;;10.70;54.90;;;;;;5015475;28;20625;-65
2024/02/08 08:30:38;;;;;;;1.30;1.30;;;10.70;54.70;;;;;;5022217;28;20690;-66
2024/02/08 08:33:16;;;;;;;1.50;1.40;;;10.80;54.80;;;;;;5028593;28;20302;-66
2024/02/08 08:36:04;;;;;;;1.40;1.30;;;10.80;54.40;;;;;;5027346;28;20685;-66
2024/02/08 08:38:30;;;;;;;1.50;1.40;;;10.80;54.50;;;;;;5022933;28;20207;-66
2024/02/08 08:41:06;;;;;;;1.10;1.10;;;11.10;54.50;;;;;;5025435;28;20283;-65
2024/02/08 08:43:34;;;;;;;1.20;1.20;;;11.20;54.30;;;;;;5023190;28;20692;-66
2024/02/08 08:46:00;;;;;;;1.20;1.20;;;11.10;53.50;;;;;;5017960;28;20212;-66
2024/02/08 08:48:30;;;;;;;1.30;1.30;;;11.20;53.60;;;;;;5023549;28;20213;-66
2024/02/08 08:50:56;;;;;;;1.20;1.20;;;11.30;53.70;;;;;;5025936;28;20245;-66
2024/02/08 08:53:27;;;;;;;1.50;1.40;;;11.30;53.60;;;;;;5024412;28;20862;-65
2024/02/08 08:55:55;;;;;;;1.30;1.30;;;11.30;53.30;;;;;;5023604;28;20233;-65
2024/02/08 08:58:27;;;;;;;1.20;1.20;;;11.40;53.00;;;;;;5024244;28;20293;-65
2024/02/08 09:01:04;;;;;;;1.50;1.40;;;11.50;52.90;;;;;;5017931;28;20214;-65
2024/02/08 09:03:39;;;;;;;1.30;1.20;;;11.40;53.00;;;;;;5025170;28;20206;-64
2024/02/08 09:06:12;;;;;;;1.40;1.30;;;11.50;52.80;;;;;;5025897;28;20754;-64
2024/02/08 09:08:42;;;;;;;1.20;1.20;;;11.50;52.80;;;;;;5028345;28;20209;-65
2024/02/08 09:11:12;;;;;;;1.20;1.20;;;11.40;52.90;;;;;;5023608;28;20220;-65
2024/02/08 09:13:39;;;;;;;1.00;1.00;;;11.50;53.00;;;;;;5021662;28;20283;-65
2024/02/08 09:21:32;;;;;;;1.60;1.50;;;12.00;51.60;;;;;;5018717;28;20230;-64
2024/02/08 09:23:58;;;;;;;1.30;1.30;;;11.80;51.80;;;;;;5015619;28;20263;-64
2024/02/08 09:26:25;;;;;;;1.40;1.30;;;11.80;52.10;;;;;;5009201;28;20309;-65
2024/02/08 09:28:52;;;;;;;4.40;1.30;;;11.80;52.40;;;;;;5022560;28;20754;-65
2024/02/08 09:31:18;;;;;;;1.20;1.10;;;11.80;52.40;;;;;;5016105;28;20823;-64
2024/02/08 09:33:50;;;;;;;1.30;1.30;;;11.90;52.30;;;;;;5027619;28;20242;-64
2024/02/08 09:36:16;;;;;;;1.20;1.20;;;11.80;52.20;;;;;;5020303;28;20234;-65
2024/02/08 09:38:50;;;;;;;1.40;1.30;;;11.80;52.30;;;;;;5031528;28;20237;-64
2024/02/08 09:41:18;;;;;;;2.47;1.23;;;11.80;52.00;;;;;;5019735;28;20285;-64
2024/02/08 09:43:46;;;;;;;1.27;1.17;;;11.90;52.40;;;;;;5018620;28;20238;-64
2024/02/08 09:46:28;;;;;;;1.00;1.00;;;12.00;51.30;;;;;;5023582;28;20207;-64
2024/02/08 09:48:54;;;;;;;1.50;1.20;;;12.10;51.30;;;;;;5028691;28;20295;-64
2024/02/08 09:51:24;;;;;;;1.00;1.00;;;12.20;51.30;;;;;;5016590;28;20238;-65
2024/02/08 09:53:52;;;;;;;1.37;1.27;;;12.20;51.50;;;;;;5013450;28;20641;-64
2024/02/08 09:56:25;;;;;;;1.10;1.10;;;12.20;51.00;;;;;;5023098;28;20302;-65
2024/02/08 09:58:56;;;;;;;2.10;1.37;;;12.40;51.60;;;;;;4999928;28;20203;-64
2024/02/08 10:01:30;;;;;;;1.23;1.23;;;12.40;51.20;;;;;;5012925;28;20312;-64
2024/02/08 10:04:04;;;;;;;1.30;1.20;;;12.50;50.90;;;;;;5016659;28;20746;-62
2024/02/08 10:06:38;;;;;;;1.47;1.23;;;12.50;51.30;;;;;;5021276;28;20252;-62
2024/02/08 10:09:33;;;;;;;1.20;1.20;;;12.60;50.70;;;;;;5011563;28;20206;-62
2024/02/08 10:11:58;;;;;;;1.20;1.20;;;12.80;50.40;;;;;;5022752;28;20228;-63
2024/02/08 10:14:25;;;;;;;1.53;1.40;;;12.80;50.60;;;;;;5015315;28;20219;-62
2024/02/08 10:16:53;;;;;;;1.40;1.30;;;12.80;50.30;;;;;;5024092;28;20239;-63
2024/02/08 10:19:28;;;;;;;1.17;1.17;;;12.80;50.00;;;;;;5022201;28;20225;-63
2024/02/08 10:21:56;;;;;;;1.60;1.50;;;12.80;50.30;;;;;;5026558;28;20265;-63
2024/02/08 10:24:26;;;;;;;1.57;1.17;;;13.00;50.20;;;;;;5018887;28;20218;-62
2024/02/08 10:26:58;;;;;;;1.00;1.00;;;13.00;49.60;;;;;;5014604;28;20211;-63
2024/02/08 10:29:25;;;;;;;1.30;1.20;;;13.00;49.70;;;;;;5021264;28;20208;-63
2024/02/08 10:31:52;;;;;;;1.73;1.20;;;12.90;49.90;;;;;;5025309;28;20285;-63
2024/02/08 10:34:32;;;;;;;1.10;1.10;;;13.00;49.50;;;;;;5020462;28;20349;-63
2024/02/08 10:36:59;;;;;;;1.10;1.10;;;13.10;49.20;;;;;;5021409;28;20235;-63
2024/02/08 10:39:25;;;;;;;1.10;1.10;;;13.10;49.30;;;;;;5012328;28;20225;-64
2024/02/08 10:41:58;;;;;;;1.10;1.10;;;13.10;49.60;;;;;;5028331;28;20231;-63
2024/02/08 10:44:27;;;;;;;0.93;0.93;;;13.10;49.80;;;;;;5009077;28;21913;-63
2024/02/08 10:46:55;;;;;;;1.07;1.07;;;13.20;49.20;;;;;;5022762;28;20203;-62
2024/02/08 10:49:22;;;;;;;1.00;1.00;;;13.40;48.60;;;;;;5023617;28;20220;-64
2024/02/08 10:51:49;;;;;;;1.30;1.20;;;13.70;47.80;;;;;;5032568;28;20590;-64
2024/02/08 10:54:16;;;;;;;1.00;1.00;;;13.70;47.80;;;;;;5024318;28;20212;-64
2024/02/08 10:56:44;;;;;;;1.13;1.13;;;13.70;47.80;;;;;;5024824;28;20217;-64
2024/02/08 10:59:13;;;;;;;1.03;1.03;;;13.80;47.90;;;;;;5021008;28;20205;-64
2024/02/08 11:04:28;;;;;;;1.00;1.00;;;13.80;47.90;;;;;;5026172;28;20296;-64
2024/02/08 11:07:06;;;;;;;1.43;1.10;;;13.80;47.90;;;;;;5015038;28;20495;-64
2024/02/08 11:09:32;;;;;;;1.20;1.20;;;13.90;48.00;;;;;;5014572;28;20582;-63
2024/02/08 11:12:00;;;;;;;1.83;1.30;;;14.20;47.90;;;;;;5024691;28;20270;-64
2024/02/08 11:14:26;;;;;;;1.10;1.10;;;14.20;47.40;;;;;;5027315;28;20405;-64
2024/02/08 11:16:53;;;;;;;1.10;1.10;;;14.50;46.80;;;;;;5026790;28;20275;-64
2024/02/08 11:19:22;;;;;;;1.13;1.10;;;14.10;47.40;;;;;;5030600;28;20211;-64
2024/02/08 11:21:49;;;;;;;1.10;1.10;;;13.90;48.00;;;;;;5031557;28;20252;-64
2024/02/08 11:24:27;;;;;;;1.63;1.10;;;13.70;48.70;;;;;;5029665;28;20231;-64
2024/02/08 11:26:54;;;;;;;1.10;1.10;;;13.70;49.20;;;;;;5022491;28;20199;-64
2024/02/08 11:29:21;;;;;;;1.00;1.00;;;13.60;48.80;;;;;;5022594;28;20619;-64
2024/02/08 11:31:47;;;;;;;0.90;0.90;;;13.80;49.00;;;;;;5028766;28;20282;-64
2024/02/08 11:34:14;;;;;;;2.60;1.13;;;13.60;49.20;;;;;;5031698;28;20584;-64
2024/02/08 11:36:42;;;;;;;3.50;1.40;;;13.60;49.20;;;;;;5026299;28;20702;-64
2024/02/08 11:39:26;;;;;;;1.00;1.00;;;13.90;48.80;;;;;;5023385;28;20209;-64
2024/02/08 11:41:53;;;;;;;1.20;1.10;;;13.80;48.60;;;;;;5025961;28;20695;-64
2024/02/08 11:44:21;;;;;;;1.20;1.10;;;13.60;49.00;;;;;;5031600;28;20217;-63
2024/02/08 11:46:51;;;;;;;1.10;1.10;;;13.60;49.10;;;;;;5022303;28;20201;-64
2024/02/08 11:49:24;;;;;;;1.53;1.43;;;13.40;49.60;;;;;;5027746;28;20212;-63
2024/02/08 11:51:50;;;;;;;1.00;1.00;;;13.50;49.20;;;;;;5031083;28;20234;-64
2024/02/08 11:54:17;;;;;;;1.30;1.20;;;13.40;49.60;;;;;;5014623;28;20271;-64
2024/02/08 11:56:44;;;;;;;1.23;1.20;;;13.70;49.50;;;;;;5026091;28;20231;-63
2024/02/08 11:59:11;;;;;;;4.77;1.10;;;13.80;49.10;;;;;;5028258;28;20223;-64
2024/02/08 12:01:38;;;;;;;1.70;1.60;;;13.80;49.20;;;;;;5023183;28;20233;-63
2024/02/08 12:04:04;;;;;;;1.20;1.10;;;13.80;49.70;;;;;;5020298;28;20649;-64
2024/02/08 12:06:34;;;;;;;1.20;1.20;;;13.70;50.00;;;;;;5031225;28;20265;-63
2024/02/08 12:09:02;;;;;;;1.00;1.00;;;13.60;51.30;;;;;;5031165;28;20274;-64
2024/02/08 12:11:30;;;;;;;1.00;1.00;;;13.50;51.00;;;;;;5022943;28;20584;-63
2024/02/08 12:13:56;;;;;;;1.10;1.10;;;13.50;50.50;;;;;;5031295;28;20246;-63
2024/02/08 12:16:25;;;;;;;1.47;1.00;;;13.70;50.30;;;;;;5031668;28;20241;-64
2024/02/08 12:18:52;;;;;;;1.00;1.00;;;13.70;49.70;;;;;;5028192;28;20262;-64
2024/02/08 12:21:23;;;;;;;1.10;1.10;;;13.70;50.00;;;;;;5026142;28;20232;-64
2024/02/08 12:23:53;;;;;;;1.20;1.20;;;13.60;49.80;;;;;;5029094;28;20210;-63
2024/02/08 12:26:22;;;;;;;1.20;1.10;;;13.80;49.40;;;;;;5026279;28;20208;-64
2024/02/08 12:28:55;;;;;;;1.50;1.40;;;14.00;49.10;;;;;;5020728;28;20215;-64
2024/02/08 12:31:24;;;;;;;1.00;1.00;;;14.10;48.60;;;;;;5025894;28;20225;-64
2024/02/08 12:33:50;;;;;;;1.20;1.10;;;14.00;49.20;;;;;;5035032;28;20276;-64
2024/02/08 12:36:17;;;;;;;0.97;0.93;;;13.80;49.40;;;;;;5025634;28;20255;-64
2024/02/08 12:38:46;;;;;;;1.20;1.20;;;13.60;49.80;;;;;;5022997;28;20211;-64
2024/02/08 12:41:12;;;;;;;1.17;1.07;;;13.60;50.30;;;;;;5035242;28;20228;-64
2024/02/08 12:43:42;;;;;;;1.03;0.90;;;13.60;49.70;;;;;;5034581;28;20207;-64
2024/02/08 12:46:09;;;;;;;1.43;1.20;;;13.40;50.30;;;;;;5026185;28;20587;-64
2024/02/08 12:48:35;;;;;;;2.30;0.90;;;13.40;50.60;;;;;;5035219;28;20276;-64
2024/02/08 12:51:03;;;;;;;1.00;1.00;;;13.40;50.70;;;;;;5026505;28;20212;-63
2024/02/08 12:53:30;;;;;;;1.10;1.10;;;13.40;51.40;;;;;;5017851;28;20221;-64
2024/02/08 12:56:01;;;;;;;0.90;0.90;;;13.40;51.30;;;;;;5030797;28;20206;-64
2024/02/08 12:58:28;;;;;;;1.10;1.00;;;13.30;51.10;;;;;;5018114;28;20716;-64
2024/02/08 13:00:54;;;;;;;1.03;1.03;;;13.40;51.20;;;;;;5027962;28;20217;-63
2024/02/08 13:03:24;;;;;;;1.00;1.00;;;13.30;51.20;;;;;;5031825;28;20232;-63
2024/02/08 13:05:51;;;;;;;0.90;0.90;;;13.20;51.40;;;;;;5023422;28;20451;-64
2024/02/08 13:08:17;;;;;;;0.90;0.90;;;13.20;51.50;;;;;;5032607;28;20257;-64
2024/02/08 13:10:44;;;;;;;1.10;1.10;;;13.30;51.20;;;;;;5020517;28;20215;-64
2024/02/08 13:13:10;;;;;;;1.20;1.00;;;13.40;51.10;;;;;;5031241;28;20203;-64
2024/02/08 13:15:37;;;;;;;1.97;1.10;;;13.30;51.10;;;;;;5029464;28;20268;-64
2024/02/08 13:18:09;;;;;;;0.90;0.90;;;13.40;50.90;;;;;;5012180;28;20229;-63
2024/02/08 13:20:36;;;;;;;1.10;1.10;;;13.30;51.20;;;;;;5017433;28;20206;-63
2024/02/08 13:23:04;;;;;;;1.00;1.00;;;13.20;51.90;;;;;;4990311;28;20658;-64
2024/02/08 13:25:34;;;;;;;1.17;1.00;;;13.10;51.80;;;;;;5024051;28;20235;-64
2024/02/08 13:28:02;;;;;;;1.10;1.10;;;13.10;51.80;;;;;;5022340;28;20203;-64
2024/02/08 13:30:29;;;;;;;1.07;1.07;;;13.10;51.80;;;;;;5016286;28;20633;-64
2024/02/08 13:32:56;;;;;;;1.43;1.10;;;13.00;52.00;;;;;;5029963;28;20235;-64
2024/02/08 13:35:22;;;;;;;1.00;0.90;;;12.90;51.60;;;;;;5020704;28;20214;-64
2024/02/08 13:37:49;;;;;;;1.27;0.80;;;12.80;51.90;;;;;;5015629;28;20227;-64
2024/02/08 13:40:17;;;;;;;1.33;0.90;;;12.90;51.60;;;;;;5013855;28;20589;-64
2024/02/08 13:42:44;;;;;;;1.30;1.20;;;12.90;51.60;;;;;;5024411;28;20241;-64
2024/02/08 13:45:13;;;;;;;1.20;1.10;;;13.00;51.70;;;;;;5022879;28;20242;-64
2024/02/08 13:47:40;;;;;;;3.60;1.20;;;12.90;51.60;;;;;;5039300;28;20203;-64
2024/02/08 13:50:11;;;;;;;1.63;1.00;;;12.90;51.60;;;;;;5027918;28;20206;-64
2024/02/08 13:52:38;;;;;;;2.13;1.50;;;12.90;51.50;;;;;;5018795;28;20235;-65
2024/02/08 13:55:07;;;;;;;1.20;1.10;;;12.90;51.60;;;;;;5030233;28;20207;-64
2024/02/08 13:57:34;;;;;;;1.30;1.20;;;13.00;51.70;;;;;;5021038;28;20273;-63
2024/02/08 14:00:03;;;;;;;1.30;1.20;;;13.00;51.00;;;;;;5012210;28;20208;-64
2024/02/08 14:02:32;;;;;;;2.03;1.20;;;12.90;51.20;;;;;;5018296;28;20708;-64
2024/02/08 14:05:04;;;;;;;1.30;1.20;;;12.90;51.20;;;;;;5030900;28;20574;-64
2024/02/08 14:07:31;;;;;;;1.00;1.00;;;12.90;51.00;;;;;;5025374;28;20212;-64
2024/02/08 14:09:59;;;;;;;1.30;1.20;;;12.80;51.30;;;;;;5016635;28;20206;-64
2024/02/08 14:12:25;;;;;;;1.50;1.40;;;12.80;51.00;;;;;;5033104;28;20315;-64
2024/02/08 14:14:54;;;;;;;1.10;1.10;;;12.80;51.00;;;;;;5026046;28;20200;-64
2024/02/08 14:17:21;;;;;;;2.30;1.20;;;12.90;50.80;;;;;;5030163;28;20230;-63
2024/02/08 14:19:47;;;;;;;2.20;1.63;;;12.90;50.90;;;;;;5022086;28;20979;-64
2024/02/08 14:22:16;;;;;;;2.27;1.30;;;12.90;50.50;;;;;;5027561;28;20238;-64
2024/02/08 14:24:50;;;;;;;1.30;1.20;;;12.90;50.50;;;;;;5029411;28;20218;-63
2024/02/08 14:27:16;;;;;;;2.43;1.73;;;12.90;50.50;;;;;;5025235;28;20261;-64
2024/02/08 14:29:43;;;;;;;1.87;1.60;;;12.90;50.50;;;;;;5023051;28;20244;-64
2024/02/08 14:32:11;;;;;;;1.63;1.50;;;12.90;50.30;;;;;;5026205;28;20235;-64
2024/02/08 14:34:38;;;;;;;3.47;1.77;;;12.80;50.60;;;;;;5024370;28;20751;-64
2024/02/08 14:37:05;;;;;;;3.23;2.10;;;12.80;50.40;;;;;;5021566;28;20767;-64
2024/02/08 14:39:33;;;;;;;3.93;2.13;;;12.80;50.20;;;;;;5030455;28;20266;-64
2024/02/08 14:42:00;;;;;;;1.93;1.50;;;12.80;50.00;;;;;;5021259;28;20255;-64
2024/02/08 14:44:32;;;;;;;3.53;1.90;;;12.90;49.70;;;;;;5027789;28;20682;-64
2024/02/08 14:47:06;;;;;;;2.93;1.53;;;12.80;49.70;;;;;;5029557;28;20202;-65
2024/02/08 14:49:36;;;;;;;3.97;2.37;;;12.80;49.90;;;;;;5030440;28;20241;-64